sensor_id;sensor_type;location;lat;lon;timestamp;pressure;altitude;pressure_sealevel;temperature;humidity
39411;BME280;26579;43.238;23.124;2022-11-20T00:00:14;96277.03;;;10.26;83.83
39411;BME280;26579;43.238;23.124;2022-11-20T00:02:41;96276.94;;;10.27;84.51
39411;BME280;26579;43.238;23.124;2022-11-20T00:05:09;96268.44;;;10.06;85.07
39411;BME280;26579;43.238;23.124;2022-11-20T00:07:38;96276.78;;;10.00;85.88
39411;BME280;26579;43.238;23.124;2022-11-20T00:10:08;96278.84;;;10.15;86.22
39411;BME280;26579;43.238;23.124;2022-11-20T00:12:36;96259.53;;;10.18;85.08
39411;BME280;26579;43.238;23.124;2022-11-20T00:15:03;96270.91;;;10.36;85.00
39411;BME280;26579;43.238;23.124;2022-11-20T00:17:30;96258.53;;;10.48;84.30
39411;BME280;26579;43.238;23.124;2022-11-20T00:19:57;96261.28;;;10.47;83.98
39411;BME280;26579;43.238;23.124;2022-11-20T00:22:24;96262.56;;;10.33;84.81
39411;BME280;26579;43.238;23.124;2022-11-20T00:24:51;96234.59;;;10.25;84.65
39411;BME280;26579;43.238;23.124;2022-11-20T00:27:17;96251.16;;;10.43;84.66
39411;BME280;26579;43.238;23.124;2022-11-20T00:29:44;96253.22;;;10.40;84.11
39411;BME280;26579;43.238;23.124;2022-11-20T00:32:10;96255.59;;;10.04;85.98
39411;BME280;26579;43.238;23.124;2022-11-20T00:34:36;96284.88;;;10.16;86.34
39411;BME280;26579;43.238;23.124;2022-11-20T00:37:03;96242.84;;;9.91;86.77
39411;BME280;26579;43.238;23.124;2022-11-20T00:39:31;96289.53;;;10.12;86.66
39411;BME280;26579;43.238;23.124;2022-11-20T00:41:57;96273.50;;;9.97;86.99
39411;BME280;26579;43.238;23.124;2022-11-20T00:44:24;96278.16;;;10.13;87.28
39411;BME280;26579;43.238;23.124;2022-11-20T00:46:50;96302.13;;;10.27;86.85
39411;BME280;26579;43.238;23.124;2022-11-20T00:49:17;96290.06;;;10.26;86.84
39411;BME280;26579;43.238;23.124;2022-11-20T00:51:47;96300.63;;;10.24;86.84
39411;BME280;26579;43.238;23.124;2022-11-20T00:54:14;96287.03;;;10.20;85.84
39411;BME280;26579;43.238;23.124;2022-11-20T00:56:41;96305.56;;;10.27;85.68
39411;BME280;26579;43.238;23.124;2022-11-20T00:59:09;96282.25;;;10.35;85.41
39411;BME280;26579;43.238;23.124;2022-11-20T01:01:36;96287.72;;;10.42;85.11
39411;BME280;26579;43.238;23.124;2022-11-20T01:04:03;96254.31;;;10.37;84.59
39411;BME280;26579;43.238;23.124;2022-11-20T01:06:34;96263.88;;;10.56;83.89
39411;BME280;26579;43.238;23.124;2022-11-20T01:09:06;96267.41;;;10.55;83.84
39411;BME280;26579;43.238;23.124;2022-11-20T01:11:35;96264.81;;;10.65;83.37
39411;BME280;26579;43.238;23.124;2022-11-20T01:14:09;96259.06;;;10.52;83.39
39411;BME280;26579;43.238;23.124;2022-11-20T01:16:40;96234.59;;;10.45;83.38
39411;BME280;26579;43.238;23.124;2022-11-20T01:19:12;96264.75;;;10.28;84.58
39411;BME280;26579;43.238;23.124;2022-11-20T01:21:40;96242.28;;;10.17;85.20
39411;BME280;26579;43.238;23.124;2022-11-20T01:24:10;96252.81;;;10.25;84.90
39411;BME280;26579;43.238;23.124;2022-11-20T01:26:40;96287.72;;;10.42;83.94
39411;BME280;26579;43.238;23.124;2022-11-20T01:29:23;96291.16;;;10.42;82.99
39411;BME280;26579;43.238;23.124;2022-11-20T01:31:50;96316.34;;;10.42;82.99
39411;BME280;26579;43.238;23.124;2022-11-20T01:34:18;96328.41;;;10.43;83.58
39411;BME280;26579;43.238;23.124;2022-11-20T01:36:45;96324.28;;;10.50;83.20
39411;BME280;26579;43.238;23.124;2022-11-20T01:39:20;96315.47;;;10.61;82.44
39411;BME280;26579;43.238;23.124;2022-11-20T01:41:47;96291.41;;;10.59;82.23
39411;BME280;26579;43.238;23.124;2022-11-20T01:44:17;96299.34;;;10.57;81.98
39411;BME280;26579;43.238;23.124;2022-11-20T01:47:05;96316.00;;;10.64;80.93
39411;BME280;26579;43.238;23.124;2022-11-20T01:49:56;96327.56;;;10.62;81.99
39411;BME280;26579;43.238;23.124;2022-11-20T01:52:36;96339.63;;;10.43;82.19
39411;BME280;26579;43.238;23.124;2022-11-20T01:55:07;96366.75;;;10.41;83.38
39411;BME280;26579;43.238;23.124;2022-11-20T01:57:36;96368.13;;;10.45;83.54
39411;BME280;26579;43.238;23.124;2022-11-20T02:00:07;96367.41;;;10.53;83.22
39411;BME280;26579;43.238;23.124;2022-11-20T02:02:48;96361.00;;;10.57;82.53
39411;BME280;26579;43.238;23.124;2022-11-20T02:05:28;96352.06;;;10.69;82.55
39411;BME280;26579;43.238;23.124;2022-11-20T02:08:03;96373.28;;;10.74;82.86
39411;BME280;26579;43.238;23.124;2022-11-20T02:10:33;96359.28;;;10.75;82.20
39411;BME280;26579;43.238;23.124;2022-11-20T02:13:07;96362.03;;;10.83;82.17
39411;BME280;26579;43.238;23.124;2022-11-20T02:15:39;96351.31;;;10.86;82.11
39411;BME280;26579;43.238;23.124;2022-11-20T02:18:11;96355.72;;;10.86;82.07
39411;BME280;26579;43.238;23.124;2022-11-20T02:20:45;96366.81;;;10.78;82.75
39411;BME280;26579;43.238;23.124;2022-11-20T02:25:46;96351.38;;;10.67;82.99
39411;BME280;26579;43.238;23.124;2022-11-20T02:28:13;96352.75;;;10.71;82.67
39411;BME280;26579;43.238;23.124;2022-11-20T02:30:40;96377.97;;;10.71;82.77
39411;BME280;26579;43.238;23.124;2022-11-20T02:33:07;96366.69;;;10.70;83.39
39411;BME280;26579;43.238;23.124;2022-11-20T02:35:46;96357.94;;;10.71;82.84
39411;BME280;26579;43.238;23.124;2022-11-20T02:38:14;96368.06;;;10.64;83.19
39411;BME280;26579;43.238;23.124;2022-11-20T02:40:45;96348.38;;;10.62;82.76
39411;BME280;26579;43.238;23.124;2022-11-20T02:45:56;96360.00;;;10.77;82.39
39411;BME280;26579;43.238;23.124;2022-11-20T02:48:30;96337.94;;;10.72;82.24
39411;BME280;26579;43.238;23.124;2022-11-20T02:50:57;96369.44;;;10.78;82.80
39411;BME280;26579;43.238;23.124;2022-11-20T02:53:25;96366.53;;;10.81;82.67
39411;BME280;26579;43.238;23.124;2022-11-20T02:55:58;96389.13;;;10.91;82.20
39411;BME280;26579;43.238;23.124;2022-11-20T02:58:30;96381.75;;;10.86;81.56
39411;BME280;26579;43.238;23.124;2022-11-20T03:00:58;96366.53;;;10.81;82.72
39411;BME280;26579;43.238;23.124;2022-11-20T03:03:25;96366.53;;;10.81;82.23
39411;BME280;26579;43.238;23.124;2022-11-20T03:05:58;96377.25;;;10.88;82.32
39411;BME280;26579;43.238;23.124;2022-11-20T03:08:37;96363.09;;;10.91;82.52
39411;BME280;26579;43.238;23.124;2022-11-20T03:11:13;96378.91;;;10.79;82.82
39411;BME280;26579;43.238;23.124;2022-11-20T03:13:47;96378.63;;;10.82;82.71
39411;BME280;26579;43.238;23.124;2022-11-20T03:16:32;96379.28;;;10.84;82.52
39411;BME280;26579;43.238;23.124;2022-11-20T03:19:16;96374.47;;;10.90;82.60
39411;BME280;26579;43.238;23.124;2022-11-20T03:22:02;96363.25;;;10.89;82.80
39411;BME280;26579;43.238;23.124;2022-11-20T03:25:01;96364.34;;;10.86;83.64
39411;BME280;26579;43.238;23.124;2022-11-20T03:27:56;96384.91;;;10.90;83.79
39411;BME280;26579;43.238;23.124;2022-11-20T03:30:36;96405.72;;;10.90;83.74
39411;BME280;26579;43.238;23.124;2022-11-20T03:33:17;96406.69;;;10.88;83.78
39411;BME280;26579;43.238;23.124;2022-11-20T03:35:55;96436.97;;;10.90;84.10
39411;BME280;26579;43.238;23.124;2022-11-20T03:38:34;96437.25;;;10.86;84.32
39411;BME280;26579;43.238;23.124;2022-11-20T03:41:08;96443.81;;;10.91;83.81
39411;BME280;26579;43.238;23.124;2022-11-20T03:43:37;96436.59;;;10.75;84.64
39411;BME280;26579;43.238;23.124;2022-11-20T03:46:05;96440.69;;;10.77;84.83
39411;BME280;26579;43.238;23.124;2022-11-20T03:48:31;96454.69;;;10.76;84.79
39411;BME280;26579;43.238;23.124;2022-11-20T03:51:10;96451.25;;;10.85;84.66
39411;BME280;26579;43.238;23.124;2022-11-20T03:53:39;96449.31;;;10.87;84.23
39411;BME280;26579;43.238;23.124;2022-11-20T03:56:18;96449.72;;;10.93;83.55
39411;BME280;26579;43.238;23.124;2022-11-20T03:58:54;96438.09;;;10.77;83.59
39411;BME280;26579;43.238;23.124;2022-11-20T04:01:31;96461.22;;;10.90;83.74
39411;BME280;26579;43.238;23.124;2022-11-20T04:03:58;96463.56;;;10.93;83.52
39411;BME280;26579;43.238;23.124;2022-11-20T04:06:29;96449.84;;;11.01;82.71
39411;BME280;26579;43.238;23.124;2022-11-20T04:08:59;96419.31;;;10.83;82.47
39411;BME280;26579;43.238;23.124;2022-11-20T04:11:29;96427.53;;;10.88;82.29
39411;BME280;26579;43.238;23.124;2022-11-20T04:14:02;96462.31;;;11.07;81.92
39411;BME280;26579;43.238;23.124;2022-11-20T04:16:33;96456.56;;;11.03;81.62
39411;BME280;26579;43.238;23.124;2022-11-20T04:19:06;96473.25;;;11.10;81.83
39411;BME280;26579;43.238;23.124;2022-11-20T04:21:36;96473.53;;;11.07;82.22
39411;BME280;26579;43.238;23.124;2022-11-20T04:24:07;96467.81;;;11.04;82.29
39411;BME280;26579;43.238;23.124;2022-11-20T04:26:34;96458.63;;;11.00;82.07
39411;BME280;26579;43.238;23.124;2022-11-20T04:29:03;96474.78;;;10.94;82.87
39411;BME280;26579;43.238;23.124;2022-11-20T04:31:35;96462.34;;;10.87;82.90
39411;BME280;26579;43.238;23.124;2022-11-20T04:34:03;96480.00;;;11.03;83.31
39411;BME280;26579;43.238;23.124;2022-11-20T04:36:31;96478.75;;;11.07;82.96
39411;BME280;26579;43.238;23.124;2022-11-20T04:38:59;96488.75;;;11.02;83.07
39411;BME280;26579;43.238;23.124;2022-11-20T04:41:35;96499.34;;;11.01;82.88
39411;BME280;26579;43.238;23.124;2022-11-20T04:44:04;96492.22;;;11.03;82.87
39411;BME280;26579;43.238;23.124;2022-11-20T04:46:34;96493.84;;;11.04;82.87
39411;BME280;26579;43.238;23.124;2022-11-20T04:49:03;96463.84;;;10.90;83.48
39411;BME280;26579;43.238;23.124;2022-11-20T04:51:31;96452.75;;;10.88;82.86
39411;BME280;26579;43.238;23.124;2022-11-20T04:53:57;96442.06;;;10.91;83.62
39411;BME280;26579;43.238;23.124;2022-11-20T04:56:25;96447.13;;;10.93;83.29
39411;BME280;26579;43.238;23.124;2022-11-20T04:58:52;96459.44;;;10.91;83.64
39411;BME280;26579;43.238;23.124;2022-11-20T05:01:21;96437.78;;;10.90;83.20
39411;BME280;26579;43.238;23.124;2022-11-20T05:03:48;96447.69;;;10.86;82.96
39411;BME280;26579;43.238;23.124;2022-11-20T05:06:19;96453.72;;;10.97;83.45
39411;BME280;26579;43.238;23.124;2022-11-20T05:08:47;96459.28;;;11.02;83.65
39411;BME280;26579;43.238;23.124;2022-11-20T05:11:15;96453.00;;;10.95;84.19
39411;BME280;26579;43.238;23.124;2022-11-20T05:13:42;96477.41;;;11.03;83.67
39411;BME280;26579;43.238;23.124;2022-11-20T05:16:11;96489.06;;;11.09;82.90
39411;BME280;26579;43.238;23.124;2022-11-20T05:18:38;96491.94;;;11.06;82.94
39411;BME280;26579;43.238;23.124;2022-11-20T05:21:05;96488.63;;;11.04;83.30
39411;BME280;26579;43.238;23.124;2022-11-20T05:23:33;96491.13;;;10.96;83.08
39411;BME280;26579;43.238;23.124;2022-11-20T05:26:00;96507.56;;;11.06;82.46
39411;BME280;26579;43.238;23.124;2022-11-20T05:28:28;96503.31;;;11.05;82.35
39411;BME280;26579;43.238;23.124;2022-11-20T05:30:56;96501.78;;;11.02;82.37
39411;BME280;26579;43.238;23.124;2022-11-20T05:33:22;96527.13;;;11.20;82.03
39411;BME280;26579;43.238;23.124;2022-11-20T05:35:48;96535.81;;;11.20;81.75
39411;BME280;26579;43.238;23.124;2022-11-20T05:38:18;96568.69;;;11.31;81.29
39411;BME280;26579;43.238;23.124;2022-11-20T05:40:46;96553.31;;;11.28;81.55
39411;BME280;26579;43.238;23.124;2022-11-20T05:43:12;96550.72;;;11.28;81.35
39411;BME280;26579;43.238;23.124;2022-11-20T05:45:40;96536.63;;;11.21;81.85
39411;BME280;26579;43.238;23.124;2022-11-20T05:48:07;96515.75;;;11.11;81.77
39411;BME280;26579;43.238;23.124;2022-11-20T05:50:38;96525.00;;;11.05;82.50
39411;BME280;26579;43.238;23.124;2022-11-20T05:53:05;96520.97;;;11.11;82.68
39411;BME280;26579;43.238;23.124;2022-11-20T05:55:32;96507.69;;;11.14;82.65
39411;BME280;26579;43.238;23.124;2022-11-20T05:57:58;96504.81;;;11.17;82.82
39411;BME280;26579;43.238;23.124;2022-11-20T06:00:24;96517.16;;;11.05;82.91
39411;BME280;26579;43.238;23.124;2022-11-20T06:02:51;96514.41;;;11.07;83.26
39411;BME280;26579;43.238;23.124;2022-11-20T06:05:18;96519.63;;;11.07;83.05
39411;BME280;26579;43.238;23.124;2022-11-20T06:07:45;96496.03;;;10.99;82.84
39411;BME280;26579;43.238;23.124;2022-11-20T06:10:11;96516.75;;;11.10;83.33
39411;BME280;26579;43.238;23.124;2022-11-20T06:12:38;96511.13;;;11.05;83.10
39411;BME280;26579;43.238;23.124;2022-11-20T06:15:06;96508.22;;;11.08;82.38
39411;BME280;26579;43.238;23.124;2022-11-20T06:17:34;96481.53;;;11.06;82.95
39411;BME280;26579;43.238;23.124;2022-11-20T06:20:06;96495.78;;;11.12;83.19
39411;BME280;26579;43.238;23.124;2022-11-20T06:22:41;96497.28;;;11.04;83.54
39411;BME280;26579;43.238;23.124;2022-11-20T06:25:09;96504.69;;;11.09;83.08
39411;BME280;26579;43.238;23.124;2022-11-20T06:27:37;96502.88;;;11.19;83.02
39411;BME280;26579;43.238;23.124;2022-11-20T06:30:06;96478.47;;;11.20;82.91
39411;BME280;26579;43.238;23.124;2022-11-20T06:32:35;96465.16;;;11.14;82.49
39411;BME280;26579;43.238;23.124;2022-11-20T06:35:02;96456.81;;;11.10;81.92
39411;BME280;26579;43.238;23.124;2022-11-20T06:37:31;96488.63;;;11.23;82.09
39411;BME280;26579;43.238;23.124;2022-11-20T06:39:59;96481.47;;;11.25;82.34
39411;BME280;26579;43.238;23.124;2022-11-20T06:42:29;96474.91;;;11.21;82.81
39411;BME280;26579;43.238;23.124;2022-11-20T06:44:56;96461.47;;;11.26;82.59
39411;BME280;26579;43.238;23.124;2022-11-20T06:47:26;96458.81;;;11.36;82.25
39411;BME280;26579;43.238;23.124;2022-11-20T06:49:53;96452.38;;;11.30;82.66
39411;BME280;26579;43.238;23.124;2022-11-20T06:52:25;96455.22;;;11.37;82.37
39411;BME280;26579;43.238;23.124;2022-11-20T06:54:53;96446.88;;;11.33;82.02
39411;BME280;26579;43.238;23.124;2022-11-20T06:57:19;96451.53;;;11.39;81.68
39411;BME280;26579;43.238;23.124;2022-11-20T06:59:46;96456.63;;;11.41;82.83
39411;BME280;26579;43.238;23.124;2022-11-20T07:02:12;96454.25;;;11.47;82.92
39411;BME280;26579;43.238;23.124;2022-11-20T07:04:39;96435.31;;;11.45;83.31
39411;BME280;26579;43.238;23.124;2022-11-20T07:07:05;96439.94;;;11.51;82.86
39411;BME280;26579;43.238;23.124;2022-11-20T07:09:33;96436.97;;;11.46;82.43
39411;BME280;26579;43.238;23.124;2022-11-20T07:12:01;96445.16;;;11.51;81.75
39411;BME280;26579;43.238;23.124;2022-11-20T07:14:27;96430.59;;;11.59;81.66
39411;BME280;26579;43.238;23.124;2022-11-20T07:16:56;96407.72;;;11.52;81.84
39411;BME280;26579;43.238;23.124;2022-11-20T07:19:24;96423.91;;;11.56;83.05
39411;BME280;26579;43.238;23.124;2022-11-20T07:21:51;96428.41;;;11.64;83.23
39411;BME280;26579;43.238;23.124;2022-11-20T07:24:24;96419.44;;;11.66;82.57
39411;BME280;26579;43.238;23.124;2022-11-20T07:26:53;96418.00;;;11.54;83.12
39411;BME280;26579;43.238;23.124;2022-11-20T07:29:24;96421.69;;;11.51;84.51
39411;BME280;26579;43.238;23.124;2022-11-20T07:31:51;96404.66;;;11.57;83.63
39411;BME280;26579;43.238;23.124;2022-11-20T07:34:23;96408.06;;;11.67;83.35
39411;BME280;26579;43.238;23.124;2022-11-20T07:36:50;96397.94;;;11.64;83.81
39411;BME280;26579;43.238;23.124;2022-11-20T07:39:17;96395.44;;;11.63;83.98
39411;BME280;26579;43.238;23.124;2022-11-20T07:41:46;96410.00;;;11.65;84.42
39411;BME280;26579;43.238;23.124;2022-11-20T07:44:12;96407.78;;;11.70;84.27
39411;BME280;26579;43.238;23.124;2022-11-20T07:46:48;96383.63;;;11.68;83.70
39411;BME280;26579;43.238;23.124;2022-11-20T07:49:14;96396.38;;;11.71;83.93
39411;BME280;26579;43.238;23.124;2022-11-20T07:51:42;96406.59;;;11.83;83.49
39411;BME280;26579;43.238;23.124;2022-11-20T07:54:17;96387.94;;;11.87;83.88
39411;BME280;26579;43.238;23.124;2022-11-20T07:56:42;96405.53;;;11.85;84.09
39411;BME280;26579;43.238;23.124;2022-11-20T07:59:11;96409.03;;;11.94;83.46
39411;BME280;26579;43.238;23.124;2022-11-20T08:01:39;96409.03;;;11.94;83.92
39411;BME280;26579;43.238;23.124;2022-11-20T08:04:07;96409.03;;;11.94;83.95
39411;BME280;26579;43.238;23.124;2022-11-20T08:06:37;96399.81;;;11.99;84.56
39411;BME280;26579;43.238;23.124;2022-11-20T08:09:13;96386.25;;;11.96;84.44
39411;BME280;26579;43.238;23.124;2022-11-20T08:11:39;96398.69;;;12.02;85.44
39411;BME280;26579;43.238;23.124;2022-11-20T08:14:06;96412.03;;;11.99;85.16
39411;BME280;26579;43.238;23.124;2022-11-20T08:16:37;96414.06;;;12.05;85.49
39411;BME280;26579;43.238;23.124;2022-11-20T08:19:06;96411.06;;;12.00;85.80
39411;BME280;26579;43.238;23.124;2022-11-20T08:21:34;96407.84;;;12.06;86.09
39411;BME280;26579;43.238;23.124;2022-11-20T08:24:04;96435.53;;;12.17;85.99
39411;BME280;26579;43.238;23.124;2022-11-20T08:26:34;96421.50;;;12.18;86.25
39411;BME280;26579;43.238;23.124;2022-11-20T08:29:04;96417.06;;;12.28;86.29
39411;BME280;26579;43.238;23.124;2022-11-20T08:31:33;96435.53;;;12.35;86.14
39411;BME280;26579;43.238;23.124;2022-11-20T08:34:03;96417.66;;;12.40;85.99
39411;BME280;26579;43.238;23.124;2022-11-20T08:36:34;96407.03;;;12.41;86.48
39411;BME280;26579;43.238;23.124;2022-11-20T08:39:02;96376.50;;;12.34;86.32
39411;BME280;26579;43.238;23.124;2022-11-20T08:41:32;96390.56;;;12.41;86.58
39411;BME280;26579;43.238;23.124;2022-11-20T08:44:04;96402.81;;;12.22;84.32
39411;BME280;26579;43.238;23.124;2022-11-20T08:46:39;96406.22;;;12.23;84.34
39411;BME280;26579;43.238;23.124;2022-11-20T08:49:08;96407.72;;;12.26;82.83
39411;BME280;26579;43.238;23.124;2022-11-20T08:51:39;96424.13;;;12.18;82.44
39411;BME280;26579;43.238;23.124;2022-11-20T08:54:10;96434.47;;;12.10;81.73
39411;BME280;26579;43.238;23.124;2022-11-20T08:56:42;96438.28;;;12.15;82.75
39411;BME280;26579;43.238;23.124;2022-11-20T08:59:12;96434.25;;;12.03;83.49
39411;BME280;26579;43.238;23.124;2022-11-20T09:01:45;96407.94;;;11.96;84.33
39411;BME280;26579;43.238;23.124;2022-11-20T09:04:18;96442.28;;;12.10;84.34
39411;BME280;26579;43.238;23.124;2022-11-20T09:06:48;96452.69;;;12.19;84.33
39411;BME280;26579;43.238;23.124;2022-11-20T09:09:25;96421.88;;;12.05;84.66
39411;BME280;26579;43.238;23.124;2022-11-20T09:11:57;96438.16;;;12.17;85.30
39411;BME280;26579;43.238;23.124;2022-11-20T09:14:40;96417.50;;;12.23;84.96
39411;BME280;26579;43.238;23.124;2022-11-20T09:17:09;96416.75;;;12.31;85.45
39411;BME280;26579;43.238;23.124;2022-11-20T09:19:36;96410.03;;;12.29;86.07
39411;BME280;26579;43.238;23.124;2022-11-20T09:22:09;96394.06;;;12.32;86.32
39411;BME280;26579;43.238;23.124;2022-11-20T09:24:40;96397.88;;;12.37;86.00
39411;BME280;26579;43.238;23.124;2022-11-20T09:27:12;96376.84;;;12.39;86.25
39411;BME280;26579;43.238;23.124;2022-11-20T09:29:38;96366.84;;;12.34;86.50
39411;BME280;26579;43.238;23.124;2022-11-20T09:32:04;96377.69;;;12.39;87.77
39411;BME280;26579;43.238;23.124;2022-11-20T09:34:39;96380.56;;;12.54;87.29
39411;BME280;26579;43.238;23.124;2022-11-20T09:37:05;96362.94;;;12.56;87.93
39411;BME280;26579;43.238;23.124;2022-11-20T09:39:31;96377.72;;;12.65;87.46
39411;BME280;26579;43.238;23.124;2022-11-20T09:42:05;96371.88;;;12.72;87.87
39411;BME280;26579;43.238;23.124;2022-11-20T09:45:04;96371.41;;;12.76;87.50
39411;BME280;26579;43.238;23.124;2022-11-20T09:50:40;96358.47;;;12.93;87.84
39411;BME280;26579;43.238;23.124;2022-11-20T09:53:34;96353.63;;;13.06;88.60
39411;BME280;26579;43.238;23.124;2022-11-20T09:56:04;96348.81;;;13.19;88.44
39411;BME280;26579;43.238;23.124;2022-11-20T09:58:41;96353.31;;;13.35;88.75
39411;BME280;26579;43.238;23.124;2022-11-20T10:01:30;96349.28;;;13.49;87.54
39411;BME280;26579;43.238;23.124;2022-11-20T10:04:13;96343.75;;;13.52;86.20
39411;BME280;26579;43.238;23.124;2022-11-20T10:06:49;96343.22;;;13.40;86.00
39411;BME280;26579;43.238;23.124;2022-11-20T10:09:29;96340.75;;;13.39;86.91
39411;BME280;26579;43.238;23.124;2022-11-20T10:15:09;96345.56;;;13.59;86.82
39411;BME280;26579;43.238;23.124;2022-11-20T10:20:51;96341.53;;;13.73;85.33
39411;BME280;26579;43.238;23.124;2022-11-20T10:23:33;96347.91;;;13.71;82.83
39411;BME280;26579;43.238;23.124;2022-11-20T10:29:07;96349.91;;;13.43;85.64
39411;BME280;26579;43.238;23.124;2022-11-20T10:34:31;96350.88;;;13.33;86.16
39411;BME280;26579;43.238;23.124;2022-11-20T10:37:29;96352.00;;;13.31;87.00
39411;BME280;26579;43.238;23.124;2022-11-20T10:40:09;96378.44;;;13.28;87.89
39411;BME280;26579;43.238;23.124;2022-11-20T10:43:12;96372.59;;;13.08;88.51
39411;BME280;26579;43.238;23.124;2022-11-20T10:48:27;96359.47;;;12.74;87.99
39411;BME280;26579;43.238;23.124;2022-11-20T11:01:55;96360.56;;;12.89;88.77
39411;BME280;26579;43.238;23.124;2022-11-20T11:07:35;96339.16;;;13.20;87.32
39411;BME280;26579;43.238;23.124;2022-11-20T11:12:58;96328.66;;;13.38;85.63
39411;BME280;26579;43.238;23.124;2022-11-20T11:15:40;96313.13;;;13.36;85.79
39411;BME280;26579;43.238;23.124;2022-11-20T11:18:26;96318.72;;;13.49;85.81
39411;BME280;26579;43.238;23.124;2022-11-20T11:21:01;96315.78;;;13.44;85.85
39411;BME280;26579;43.238;23.124;2022-11-20T11:23:39;96326.38;;;13.43;86.09
39411;BME280;26579;43.238;23.124;2022-11-20T11:26:24;96335.19;;;13.33;86.16
39411;BME280;26579;43.238;23.124;2022-11-20T11:29:03;96334.00;;;13.28;87.33
39411;BME280;26579;43.238;23.124;2022-11-20T11:31:35;96338.56;;;13.26;87.00
39411;BME280;26579;43.238;23.124;2022-11-20T11:34:13;96351.06;;;13.14;86.19
39411;BME280;26579;43.238;23.124;2022-11-20T11:36:40;96374.66;;;12.96;84.27
39411;BME280;26579;43.238;23.124;2022-11-20T11:39:24;96395.41;;;12.72;85.64
39411;BME280;26579;43.238;23.124;2022-11-20T11:42:17;96436.63;;;12.68;87.40
39411;BME280;26579;43.238;23.124;2022-11-20T11:44:48;96453.69;;;12.54;86.68
39411;BME280;26579;43.238;23.124;2022-11-20T11:55:39;96433.63;;;12.37;91.02
39411;BME280;26579;43.238;23.124;2022-11-20T11:58:26;96446.38;;;12.40;90.16
39411;BME280;26579;43.238;23.124;2022-11-20T12:06:53;96427.84;;;12.69;89.47
39411;BME280;26579;43.238;23.124;2022-11-20T12:09:37;96430.16;;;12.72;89.92
39411;BME280;26579;43.238;23.124;2022-11-20T12:12:17;96436.06;;;12.74;90.07
39411;BME280;26579;43.238;23.124;2022-11-20T12:14:47;96439.31;;;12.76;89.81
39411;BME280;26579;43.238;23.124;2022-11-20T12:17:14;96453.28;;;12.67;89.07
39411;BME280;26579;43.238;23.124;2022-11-20T12:19:40;96449.56;;;12.52;89.59
39411;BME280;26579;43.238;23.124;2022-11-20T12:25:30;96451.72;;;12.56;91.59
39411;BME280;26579;43.238;23.124;2022-11-20T12:34:09;96441.34;;;12.64;89.14
39411;BME280;26579;43.238;23.124;2022-11-20T12:36:31;96432.41;;;12.67;88.67
39411;BME280;26579;43.238;23.124;2022-11-20T12:39:12;96452.38;;;12.76;88.30
39411;BME280;26579;43.238;23.124;2022-11-20T12:45:12;96450.88;;;12.74;88.47
39411;BME280;26579;43.238;23.124;2022-11-20T12:47:58;96469.25;;;12.82;88.16
39411;BME280;26579;43.238;23.124;2022-11-20T13:02:10;96426.19;;;12.86;87.82
39411;BME280;26579;43.238;23.124;2022-11-20T13:07:36;96432.28;;;12.95;87.01
39411;BME280;26579;43.238;23.124;2022-11-20T13:10:05;96399.94;;;12.69;88.08
39411;BME280;26579;43.238;23.124;2022-11-20T13:12:45;96452.41;;;13.02;87.44
39411;BME280;26579;43.238;23.124;2022-11-20T13:15:36;96439.53;;;13.01;86.77
39411;BME280;26579;43.238;23.124;2022-11-20T13:18:09;96430.69;;;13.02;87.19
39411;BME280;26579;43.238;23.124;2022-11-20T13:20:42;96450.78;;;13.01;87.94
39411;BME280;26579;43.238;23.124;2022-11-20T13:23:23;96452.13;;;13.05;87.60
39411;BME280;26579;43.238;23.124;2022-11-20T13:25:49;96426.09;;;12.96;87.21
39411;BME280;26579;43.238;23.124;2022-11-20T13:30:52;96423.31;;;12.97;87.34
39411;BME280;26579;43.238;23.124;2022-11-20T13:33:32;96418.31;;;13.04;87.93
39411;BME280;26579;43.238;23.124;2022-11-20T13:36:19;96421.69;;;12.96;88.23
39411;BME280;26579;43.238;23.124;2022-11-20T13:38:51;96420.06;;;12.95;88.47
39411;BME280;26579;43.238;23.124;2022-11-20T13:41:35;96416.56;;;12.86;88.37
39411;BME280;26579;43.238;23.124;2022-11-20T13:44:27;96421.16;;;12.93;88.73
39411;BME280;26579;43.238;23.124;2022-11-20T13:46:55;96398.63;;;12.91;88.80
39411;BME280;26579;43.238;23.124;2022-11-20T13:49:34;96414.50;;;12.98;88.80
39411;BME280;26579;43.238;23.124;2022-11-20T14:00:31;96382.19;;;12.99;88.43
39411;BME280;26579;43.238;23.124;2022-11-20T14:03:18;96389.72;;;13.02;88.38
39411;BME280;26579;43.238;23.124;2022-11-20T14:05:59;96371.22;;;12.96;88.87
39411;BME280;26579;43.238;23.124;2022-11-20T14:08:48;96378.94;;;13.05;88.62
39411;BME280;26579;43.238;23.124;2022-11-20T14:11:20;96372.44;;;13.09;87.99
39411;BME280;26579;43.238;23.124;2022-11-20T14:14:00;96372.41;;;13.01;88.03
39411;BME280;26579;43.238;23.124;2022-11-20T14:16:32;96382.03;;;13.01;88.85
39411;BME280;26579;43.238;23.124;2022-11-20T14:21:54;96387.03;;;12.94;89.26
39411;BME280;26579;43.238;23.124;2022-11-20T14:24:31;96371.66;;;12.91;89.41
39411;BME280;26579;43.238;23.124;2022-11-20T14:26:58;96375.25;;;12.90;89.21
39411;BME280;26579;43.238;23.124;2022-11-20T14:29:32;96372.78;;;12.88;89.61
39411;BME280;26579;43.238;23.124;2022-11-20T14:32:05;96373.66;;;12.97;88.84
39411;BME280;26579;43.238;23.124;2022-11-20T14:34:39;96373.38;;;13.00;88.60
39411;BME280;26579;43.238;23.124;2022-11-20T14:37:11;96352.94;;;12.96;88.71
39411;BME280;26579;43.238;23.124;2022-11-20T14:39:52;96353.25;;;12.93;89.34
39411;BME280;26579;43.238;23.124;2022-11-20T14:42:28;96362.56;;;12.95;89.09
39411;BME280;26579;43.238;23.124;2022-11-20T14:44:59;96365.53;;;13.00;88.60
39411;BME280;26579;43.238;23.124;2022-11-20T14:47:32;96355.69;;;12.94;88.88
39411;BME280;26579;43.238;23.124;2022-11-20T14:50:01;96370.47;;;13.03;88.58